Terminal Aerodrome Forecast
Issued by NWS

Home | Current Version | Previous Version | Text Only | Print | Product List | Glossary On
Versions: 1 2 3 4 5 6 7 8 9 10 11 12 13 14 15 16 17 18 19 20 21 22
000
FTAK31 PAFA 271720
TAFABT
TAF
PABT 271720Z 2718/2818 33003KT 1SM BR FEW001 OVC004
     FM272000 33002KT 5SM BR OVC009
     FM272200 00000KT P6SM SCT050
     FM281200 02002KT 6SM BR FEW250
     FM281400 02002KT 2SM BR FEW001 BKN005=

USA.gov is the U.S. government's official web portal to all federal, state and local government web resources and services.